Terminal Aerodrome Forecast
Issued by NWS

Home | Current Version | Previous Version | Text Only | Print | Product List | Glossary On
Versions: 1 2 3 4 5 6 7 8 9 10 11 12 13 14 15 16
464
FTUS42 KMLB 201125
TAFFPR
TAF
KFPR 201125Z 2012/2112 02007KT P6SM SCT035
     FM201600 07011G17KT P6SM BKN040
     FM210000 09009KT P6SM BKN040
     FM210900 10008KT P6SM VCSH BKN040=

USA.gov is the U.S. government's official web portal to all federal, state and local government web resources and services.